createdAt,value
2018-04-19T00:05:16.416Z,58.35
2018-04-19T00:05:17.531Z,57.58
2018-04-19T00:06:17.529Z,57.68
2018-04-19T00:07:17.531Z,57.58
2018-04-19T00:08:17.532Z,57.68
2018-04-19T00:09:17.537Z,57.87
2018-04-19T00:10:17.529Z,57.48
2018-04-19T00:11:17.526Z,57.58
2018-04-19T00:12:17.529Z,57.58
2018-04-19T00:13:17.536Z,57.77
2018-04-19T00:14:17.524Z,57.58
2018-04-19T00:15:17.524Z,57.68
2018-04-19T00:16:17.524Z,57.77
2018-04-19T00:17:17.523Z,57.58
2018-04-19T00:18:17.522Z,57.48
2018-04-19T00:19:17.520Z,57.58
2018-04-19T00:20:17.521Z,57.29
2018-04-19T00:21:17.521Z,57.68
2018-04-19T00:22:17.523Z,57.39
2018-04-19T00:23:17.522Z,56.71
2018-04-19T00:24:17.517Z,57.10
2018-04-19T00:25:17.516Z,56.71
2018-04-19T00:26:17.519Z,56.62
2018-04-19T00:27:17.519Z,56.62
2018-04-19T00:28:17.514Z,56.62
2018-04-19T00:29:17.515Z,56.71
2018-04-19T00:30:17.513Z,56.81
2018-04-19T00:31:17.559Z,56.62
2018-04-19T00:32:17.513Z,56.62
2018-04-19T00:33:17.512Z,56.52
2018-04-19T00:34:17.511Z,56.43
2018-04-19T00:35:17.511Z,56.43
2018-04-19T00:36:17.509Z,56.23
2018-04-19T00:37:17.510Z,56.52
2018-04-19T00:38:17.507Z,56.71
2018-04-19T00:39:17.507Z,56.23
2018-04-19T00:40:17.511Z,57.00
2018-04-19T00:41:17.511Z,57.20
2018-04-19T00:42:17.505Z,57.58
2018-04-19T00:43:17.505Z,57.29
2018-04-19T00:44:17.508Z,57.48
2018-04-19T00:45:17.508Z,57.36
2018-04-19T00:46:17.503Z,57.93
2018-04-19T00:47:17.501Z,57.65
2018-04-19T00:48:17.501Z,57.65
2018-04-19T00:49:17.500Z,58.22
2018-04-19T00:50:17.504Z,58.42
2018-04-19T00:51:17.498Z,58.13
2018-04-19T00:52:17.502Z,58.51
2018-04-19T00:53:17.497Z,58.61
2018-04-19T00:54:17.500Z,58.61
2018-04-19T00:55:17.499Z,59.28
2018-04-19T00:56:17.494Z,59.38
2018-04-19T00:57:17.494Z,58.70
2018-04-19T00:58:17.497Z,59.09
2018-04-19T00:59:17.496Z,59.47
2018-04-19T01:00:17.491Z,59.57
2018-04-19T01:01:17.497Z,59.47
2018-04-19T01:02:17.489Z,59.47
2018-04-19T01:03:17.489Z,59.38
2018-04-19T01:04:17.487Z,59.16
2018-04-19T01:05:17.487Z,59.19
2018-04-19T01:06:17.490Z,58.99
2018-04-19T01:07:17.489Z,59.34
2018-04-19T01:08:17.487Z,58.99
2018-04-19T01:09:17.483Z,59.34
2018-04-19T01:10:17.546Z,59.64
2018-04-19T01:11:17.481Z,59.54
2018-04-19T01:12:17.484Z,59.92
2018-04-19T01:13:17.485Z,59.73
2018-04-19T01:14:17.479Z,60.40
2018-04-19T01:15:17.478Z,60.50
2018-04-19T01:16:17.478Z,60.21
2018-04-19T01:17:17.477Z,60.21
2018-04-19T01:18:17.478Z,60.31
2018-04-19T01:19:17.478Z,60.31
2018-04-19T01:20:17.474Z,59.64
2018-04-19T01:21:17.475Z,59.64
2018-04-19T01:22:17.475Z,59.64
2018-04-19T01:23:17.470Z,60.40
2018-04-19T01:24:17.472Z,60.02
2018-04-19T01:25:17.477Z,60.40
2018-04-19T01:26:17.467Z,60.50
2018-04-19T01:27:17.467Z,60.40
2018-04-19T01:28:17.465Z,59.83
2018-04-19T01:29:17.464Z,59.73
2018-04-19T01:30:17.463Z,59.44
2018-04-19T01:31:17.462Z,59.16
2018-04-19T01:32:17.462Z,59.44
2018-04-19T01:33:17.461Z,59.25
2018-04-19T01:34:17.458Z,59.16
2018-04-19T01:35:17.457Z,59.16
2018-04-19T01:36:17.461Z,58.96
2018-04-19T01:37:17.459Z,58.77
2018-04-19T01:38:17.458Z,59.34
2018-04-19T01:39:17.457Z,58.96
2018-04-19T01:40:17.452Z,58.87
2018-04-19T01:41:17.451Z,58.10
2018-04-19T01:42:17.450Z,58.00
2018-04-19T01:43:17.448Z,58.10
2018-04-19T01:44:17.449Z,58.29
2018-04-19T01:45:17.448Z,58.03
2018-04-19T01:46:17.444Z,58.10
2018-04-19T01:47:17.445Z,57.93
2018-04-19T01:48:17.444Z,58.20
2018-04-19T01:49:17.442Z,58.39
2018-04-19T01:50:17.445Z,58.22
2018-04-19T01:51:17.443Z,57.65
2018-04-19T01:52:17.439Z,57.65
2018-04-19T01:53:17.438Z,58.03
2018-04-19T01:54:17.437Z,57.62
2018-04-19T01:55:17.434Z,57.75
2018-04-19T01:56:17.440Z,57.52
2018-04-19T01:57:17.437Z,57.71
2018-04-19T01:58:17.431Z,57.52
2018-04-19T01:59:17.430Z,57.62
2018-04-19T02:00:17.430Z,58.29
2018-04-19T02:01:17.429Z,57.65
2018-04-19T02:02:17.428Z,58.00
2018-04-19T02:03:17.426Z,57.93
2018-04-19T02:04:17.427Z,57.71
2018-04-19T02:05:17.425Z,57.52
2018-04-19T02:06:17.422Z,57.52
2018-04-19T02:07:17.429Z,57.52
2018-04-19T02:08:17.425Z,57.45
2018-04-19T02:09:17.423Z,58.22
2018-04-19T02:10:17.418Z,58.20
2018-04-19T02:11:17.421Z,58.48
2018-04-19T02:12:17.416Z,58.20
2018-04-19T02:13:17.415Z,57.90
2018-04-19T02:14:17.413Z,58.29
2018-04-19T02:15:17.416Z,58.29
2018-04-19T02:16:17.414Z,58.10
2018-04-19T02:17:17.413Z,57.81
2018-04-19T02:18:17.412Z,58.42
2018-04-19T02:19:17.407Z,58.29
2018-04-19T02:20:17.410Z,58.22
2018-04-19T02:21:17.414Z,58.22
2018-04-19T02:22:17.408Z,58.39
2018-04-19T02:23:17.403Z,58.42
2018-04-19T02:24:17.401Z,58.03
2018-04-19T02:25:17.402Z,58.32
2018-04-19T02:26:17.399Z,58.03
2018-04-19T02:27:17.397Z,57.84
2018-04-19T02:28:17.396Z,58.22
2018-04-19T02:29:17.396Z,58.32
2018-04-19T02:30:17.398Z,58.00
2018-04-19T02:31:17.398Z,58.13
2018-04-19T02:32:17.392Z,58.03
2018-04-19T02:33:17.391Z,58.03
2018-04-19T02:34:17.393Z,58.29
2018-04-19T02:35:17.393Z,58.51
2018-04-19T02:36:17.386Z,58.39
2018-04-19T02:37:17.386Z,58.13
2018-04-19T02:38:17.388Z,59.19
2018-04-19T02:39:17.384Z,59.06
2018-04-19T02:40:17.384Z,58.67
2018-04-19T02:41:17.382Z,59.54
2018-04-19T02:42:17.380Z,59.34
2018-04-19T02:43:17.380Z,59.25
2018-04-19T02:44:17.377Z,59.16
2018-04-19T02:45:17.377Z,59.34
2018-04-19T02:46:17.374Z,59.44
2018-04-19T02:47:17.373Z,59.73
2018-04-19T02:48:17.376Z,60.02
2018-04-19T02:49:17.376Z,59.73
2018-04-19T02:50:17.371Z,60.98
2018-04-19T02:51:17.367Z,61.84
2018-04-19T02:52:17.375Z,61.72
2018-04-19T02:53:17.371Z,61.33
2018-04-19T02:54:17.365Z,62.68
2018-04-19T02:55:17.365Z,63.45
2018-04-19T02:56:17.363Z,64.31
2018-04-19T02:57:17.361Z,64.12
2018-04-19T02:58:17.359Z,65.27
2018-04-19T02:59:17.359Z,65.52
2018-04-19T03:00:17.357Z,66.58
2018-04-19T03:01:17.356Z,67.16
2018-04-19T03:02:17.358Z,66.96
2018-04-19T03:03:17.356Z,67.44
2018-04-19T03:04:17.351Z,68.30
2018-04-19T03:05:17.350Z,68.21
2018-04-19T03:06:17.351Z,69.04
2018-04-19T03:07:17.351Z,69.13
2018-04-19T03:08:17.351Z,69.71
2018-04-19T03:09:17.344Z,70.48
2018-04-19T03:10:17.342Z,71.05
2018-04-19T03:11:17.342Z,72.07
2018-04-19T03:12:17.340Z,72.45
2018-04-19T03:13:17.339Z,73.61
2018-04-19T03:14:17.340Z,73.99
2018-04-19T03:15:17.345Z,73.61
2018-04-19T03:16:17.333Z,74.15
2018-04-19T03:17:17.331Z,74.15
2018-04-19T03:18:17.330Z,74.62
2018-04-19T03:19:17.328Z,74.52
2018-04-19T03:20:17.327Z,74.72
2018-04-19T03:21:17.325Z,74.72
2018-04-19T03:22:17.324Z,75.20
2018-04-19T03:23:17.322Z,74.77
2018-04-19T03:24:17.320Z,74.52
2018-04-19T03:25:17.321Z,74.87
2018-04-19T03:26:17.320Z,75.07
2018-04-19T03:27:17.318Z,75.54
2018-04-19T03:28:17.314Z,75.73
2018-04-19T03:29:17.311Z,76.79
2018-04-19T03:30:17.313Z,76.12
2018-04-19T03:31:17.307Z,76.40
2018-04-19T03:32:17.309Z,76.60
2018-04-19T03:33:17.307Z,76.69
2018-04-19T03:34:17.302Z,76.98
2018-04-19T03:35:17.299Z,77.36
2018-04-19T03:36:17.298Z,77.55
2018-04-19T03:37:17.296Z,77.36
2018-04-19T03:38:17.294Z,77.42
2018-04-19T03:39:17.291Z,77.99
2018-04-19T03:40:17.290Z,78.95
2018-04-19T03:41:17.288Z,78.95
2018-04-19T03:42:17.284Z,78.86
2018-04-19T03:43:17.283Z,78.47
2018-04-19T03:44:17.287Z,78.95
2018-04-19T03:45:17.283Z,79.14
2018-04-19T03:46:17.280Z,79.05
2018-04-19T03:47:17.278Z,78.86
2018-04-19T03:48:17.272Z,79.43
2018-04-19T03:49:17.270Z,78.95
2018-04-19T03:50:17.266Z,79.24
2018-04-19T03:51:17.269Z,79.62
2018-04-19T03:52:17.264Z,79.43
2018-04-19T03:53:17.262Z,79.33
2018-04-19T03:54:17.258Z,79.05
2018-04-19T03:55:17.257Z,79.81
2018-04-19T03:56:17.253Z,79.62
2018-04-19T03:57:17.251Z,79.05
2018-04-19T03:58:17.252Z,78.95
2018-04-19T03:59:17.251Z,78.57
2018-04-19T04:00:17.244Z,78.95
2018-04-19T04:01:17.268Z,79.05
2018-04-19T04:02:17.252Z,79.62
2018-04-19T04:03:17.237Z,80.19
2018-04-19T04:04:17.240Z,79.81
2018-04-19T04:05:17.236Z,79.43
2018-04-19T04:06:17.231Z,79.24
2018-04-19T04:07:17.229Z,79.33
2018-04-19T04:08:17.227Z,78.95
2018-04-19T04:09:17.225Z,78.76
2018-04-19T04:10:17.225Z,78.86
2018-04-19T04:11:17.219Z,79.33
2018-04-19T04:12:17.217Z,79.91
2018-04-19T04:13:17.214Z,79.81
2018-04-19T04:14:17.213Z,79.81
2018-04-19T04:15:17.210Z,80.00
2018-04-19T04:16:17.214Z,79.72
2018-04-19T04:17:17.208Z,79.91
2018-04-19T04:18:17.205Z,79.52
2018-04-19T04:19:17.202Z,80.67
2018-04-19T04:20:17.198Z,80.77
2018-04-19T04:21:17.194Z,80.96
2018-04-19T04:22:17.192Z,80.96
2018-04-19T04:23:17.190Z,80.58
2018-04-19T04:24:17.188Z,81.25
2018-04-19T04:25:17.185Z,81.25
2018-04-19T04:26:17.182Z,81.25
2018-04-19T04:27:17.179Z,82.07
2018-04-19T04:28:17.180Z,81.88
2018-04-19T04:29:17.175Z,81.92
2018-04-19T04:30:17.177Z,82.26
2018-04-19T04:31:17.191Z,81.97
2018-04-19T04:32:17.172Z,81.21
2018-04-19T04:33:17.164Z,80.82
2018-04-19T04:34:17.161Z,81.30
2018-04-19T04:35:17.184Z,81.40
2018-04-19T04:36:17.163Z,81.21
2018-04-19T04:37:17.162Z,81.02
2018-04-19T04:38:17.151Z,80.92
2018-04-19T04:39:17.155Z,80.92
2018-04-19T04:40:17.148Z,81.78
2018-04-19T04:41:17.143Z,81.78
2018-04-19T04:42:17.140Z,81.78
2018-04-19T04:43:17.137Z,81.78
2018-04-19T04:44:17.135Z,82.35
2018-04-19T04:45:17.137Z,82.35
2018-04-19T04:46:17.128Z,83.03
2018-04-19T04:47:17.126Z,82.93
2018-04-19T04:48:17.127Z,82.89
2018-04-19T04:49:17.125Z,82.79
2018-04-19T04:50:17.121Z,83.60
2018-04-19T04:51:17.119Z,82.98
2018-04-19T04:52:17.113Z,82.70
2018-04-19T04:53:17.110Z,83.17
2018-04-19T04:54:17.106Z,83.12
2018-04-19T04:55:17.106Z,82.83
2018-04-19T04:56:17.103Z,83.50
2018-04-19T04:57:17.099Z,82.98
2018-04-19T04:58:17.097Z,82.54
2018-04-19T04:59:17.093Z,82.93
2018-04-19T05:00:17.092Z,83.22
2018-04-19T05:01:17.088Z,82.83
2018-04-19T05:02:17.089Z,83.50
2018-04-19T05:03:17.087Z,83.22
2018-04-19T05:04:17.079Z,83.16
2018-04-19T05:05:17.078Z,82.82
2018-04-19T05:06:17.073Z,82.48
2018-04-19T05:07:17.072Z,81.18
2018-04-19T05:08:17.073Z,79.97
2018-04-19T05:09:17.071Z,78.96
2018-04-19T05:10:17.064Z,77.61
2018-04-19T05:11:17.062Z,76.40
2018-04-19T05:12:17.060Z,75.38
2018-04-19T05:13:17.060Z,73.56
2018-04-19T05:14:17.057Z,72.34
2018-04-19T05:15:17.054Z,71.14
2018-04-19T05:16:17.057Z,70.50
2018-04-19T05:17:17.052Z,69.85
2018-04-19T05:18:17.050Z,68.51
2018-04-19T05:19:17.049Z,67.77
2018-04-19T05:20:17.104Z,66.65
2018-04-19T05:21:17.051Z,65.24
2018-04-19T05:22:17.046Z,64.47
2018-04-19T05:23:17.044Z,63.82
2018-04-19T05:24:17.049Z,62.76
2018-04-19T05:25:17.045Z,62.09
2018-04-19T05:26:17.063Z,61.54
2018-04-19T05:27:17.044Z,61.57
2018-04-19T05:28:17.048Z,60.44
2018-04-19T05:29:17.049Z,59.86
2018-04-19T05:30:17.044Z,59.38
2018-04-19T05:31:17.053Z,58.45
2018-04-19T05:32:17.053Z,57.77
2018-04-19T05:33:17.052Z,57.12
2018-04-19T05:34:17.051Z,56.93
2018-04-19T05:35:17.051Z,56.95
2018-04-19T05:36:17.052Z,55.89
2018-04-19T05:37:17.053Z,55.79
2018-04-19T05:38:17.057Z,54.69
2018-04-19T05:39:17.056Z,54.11
2018-04-19T05:40:17.059Z,53.85
2018-04-19T05:41:17.062Z,53.17
2018-04-19T05:42:17.067Z,52.03
2018-04-19T05:43:17.071Z,51.84
2018-04-19T05:44:17.067Z,51.84
2018-04-19T05:45:17.071Z,51.57
2018-04-19T05:46:17.079Z,51.37
2018-04-19T05:47:17.081Z,51.11
2018-04-19T05:48:17.080Z,50.65
2018-04-19T05:49:17.083Z,50.09
2018-04-19T05:50:17.087Z,49.49
2018-04-19T05:51:17.089Z,48.93
2018-04-19T05:52:17.093Z,48.73
2018-04-19T05:53:17.097Z,48.83
2018-04-19T05:54:17.101Z,47.93
2018-04-19T05:55:17.106Z,48.54
2018-04-19T05:56:17.113Z,48.52
2018-04-19T05:57:17.114Z,48.57
2018-04-19T05:58:17.118Z,48.10
2018-04-19T05:59:17.123Z,47.15
2018-04-19T06:00:17.136Z,46.77
2018-04-19T06:01:17.136Z,46.30
2018-04-19T06:02:17.145Z,46.23
2018-04-19T06:03:17.147Z,46.54
2018-04-19T06:04:17.153Z,45.20
2018-04-19T06:05:17.157Z,44.64
2018-04-19T06:06:17.157Z,43.98
2018-04-19T06:07:17.164Z,43.02
2018-04-19T06:08:17.171Z,40.88
2018-04-19T06:09:17.175Z,40.31
2018-04-19T06:10:17.180Z,40.01
2018-04-19T06:11:17.187Z,40.04
2018-04-19T06:12:17.195Z,38.77
2018-04-19T06:13:17.199Z,37.32
2018-04-19T06:14:17.208Z,37.24
2018-04-19T06:15:17.237Z,38.42
2018-04-19T06:16:17.220Z,37.43
2018-04-19T06:17:17.231Z,35.09
2018-04-19T06:18:17.238Z,34.81
2018-04-19T06:19:17.245Z,34.64
2018-04-19T06:20:17.253Z,35.14
2018-04-19T06:21:17.255Z,34.83
2018-04-19T06:22:17.262Z,33.56
2018-04-19T06:23:17.269Z,33.56
2018-04-19T06:24:17.278Z,33.28
2018-04-19T06:25:17.288Z,31.87
2018-04-19T06:26:17.296Z,30.80
2018-04-19T06:27:17.304Z,31.49
2018-04-19T06:28:17.309Z,32.17
2018-04-19T06:29:17.318Z,32.19
2018-04-19T06:30:17.381Z,32.50
2018-04-19T06:31:17.333Z,32.14
2018-04-19T06:32:17.342Z,30.68
2018-04-19T06:33:17.351Z,29.03
2018-04-19T06:34:17.359Z,28.47
2018-04-19T06:35:17.369Z,28.49
2018-04-19T06:36:17.378Z,27.60
2018-04-19T06:37:17.388Z,27.02
2018-04-19T06:38:17.400Z,25.85
2018-04-19T06:39:17.410Z,25.95
2018-04-19T06:40:17.416Z,25.24
2018-04-19T06:41:17.426Z,25.13
2018-04-19T06:42:17.436Z,24.32
2018-04-19T06:43:17.446Z,25.01
2018-04-19T06:44:17.462Z,25.66
2018-04-19T06:45:17.471Z,25.85
2018-04-19T06:46:17.477Z,26.46
2018-04-19T06:47:17.488Z,25.88
2018-04-19T06:48:17.499Z,25.31
2018-04-19T06:49:17.511Z,25.52
2018-04-19T06:50:17.526Z,25.34
2018-04-19T06:51:17.544Z,25.45
2018-04-19T06:52:17.543Z,24.42
2018-04-19T06:53:17.556Z,24.35
2018-04-19T06:54:17.565Z,24.21
2018-04-19T06:55:17.728Z,24.48
2018-04-19T06:56:17.594Z,25.15
2018-04-19T06:57:17.605Z,26.04
2018-04-19T06:58:17.620Z,25.71
2018-04-19T06:59:17.628Z,26.93
2018-04-19T07:00:17.642Z,26.25
2018-04-19T07:01:17.650Z,27.04
2018-04-19T07:02:17.660Z,26.10
2018-04-19T07:03:17.672Z,25.60
2018-04-19T07:04:17.686Z,25.07
2018-04-19T07:05:17.698Z,25.06
2018-04-19T07:06:17.717Z,25.55
2018-04-19T07:07:17.723Z,25.13
2018-04-19T07:08:17.736Z,25.65
2018-04-19T07:09:17.748Z,25.09
2018-04-19T07:10:17.764Z,25.22
2018-04-19T07:11:17.777Z,23.75
2018-04-19T07:12:17.787Z,23.38
2018-04-19T07:13:17.801Z,23.56
2018-04-19T07:14:17.812Z,22.99
2018-04-19T07:15:17.827Z,22.71
2018-04-19T07:16:17.844Z,22.30
2018-04-19T07:17:17.857Z,22.28
2018-04-19T07:18:17.866Z,22.55
2018-04-19T07:19:17.880Z,22.96
2018-04-19T07:20:17.897Z,22.83
2018-04-19T07:21:17.907Z,23.63
2018-04-19T07:22:17.921Z,23.83
2018-04-19T07:23:17.934Z,23.83
2018-04-19T07:24:17.948Z,23.54
2018-04-19T07:25:17.963Z,22.86
2018-04-19T07:26:17.976Z,22.56
2018-04-19T07:27:17.991Z,22.95
2018-04-19T07:28:18.008Z,22.86
2018-04-19T07:29:18.023Z,22.85
2018-04-19T07:30:18.032Z,22.80
2018-04-19T07:31:18.048Z,22.52
2018-04-19T07:32:18.083Z,21.83
2018-04-19T07:33:18.078Z,21.92
2018-04-19T07:34:18.092Z,21.63
2018-04-19T07:35:18.104Z,21.43
2018-04-19T07:36:18.125Z,22.03
2018-04-19T07:37:18.137Z,21.76
2018-04-19T07:38:18.147Z,20.97
2018-04-19T07:39:18.162Z,19.71
2018-04-19T07:40:18.184Z,19.64
2018-04-19T07:41:18.196Z,19.11
2018-04-19T07:42:18.206Z,18.90
2018-04-19T07:43:18.222Z,19.78
2018-04-19T07:44:18.245Z,20.18
2018-04-19T07:45:18.252Z,19.66
2018-04-19T07:46:18.267Z,19.87
2018-04-19T07:47:18.287Z,19.98
2018-04-19T07:48:18.299Z,19.58
2018-04-19T07:49:18.313Z,19.69
2018-04-19T07:50:18.332Z,19.89
2018-04-19T07:51:18.348Z,19.76
2018-04-19T07:52:18.360Z,19.87
2018-04-19T07:53:18.376Z,20.17
2018-04-19T07:54:18.395Z,19.88
2018-04-19T07:55:18.410Z,19.72
2018-04-19T07:56:18.422Z,19.69
2018-04-19T07:57:18.439Z,19.70
2018-04-19T07:58:18.456Z,19.38
2018-04-19T07:59:18.472Z,19.69
2018-04-19T08:00:18.490Z,19.65
2018-04-19T08:01:18.504Z,20.65
2018-04-19T08:02:18.521Z,19.86
2018-04-19T08:03:18.537Z,19.79
2018-04-19T08:04:18.553Z,19.81
2018-04-19T08:05:18.622Z,19.10
2018-04-19T08:06:18.584Z,18.90
2018-04-19T08:07:18.600Z,18.88
2018-04-19T08:08:18.621Z,19.49
2018-04-19T08:09:18.639Z,19.38
2018-04-19T08:10:18.650Z,19.31
2018-04-19T08:11:18.729Z,18.81
2018-04-19T08:12:18.686Z,18.52
2018-04-19T08:13:18.703Z,18.51
2018-04-19T08:14:18.716Z,18.83
2018-04-19T08:15:18.732Z,18.40
2018-04-19T08:16:18.749Z,18.60
2018-04-19T08:17:18.770Z,18.71
2018-04-19T08:18:18.783Z,18.48
2018-04-19T08:19:18.798Z,19.56
2018-04-19T08:20:18.817Z,19.68
2018-04-19T08:21:18.833Z,19.59
2018-04-19T08:22:18.852Z,19.73
2018-04-19T08:23:18.873Z,18.26
2018-04-19T08:24:18.884Z,17.97
2018-04-19T08:25:18.902Z,17.98
2018-04-19T08:26:18.922Z,17.86
2018-04-19T08:27:18.939Z,17.28
2018-04-19T08:28:18.956Z,17.28
2018-04-19T08:29:18.970Z,18.08
2018-04-19T08:30:18.988Z,17.31
2018-04-19T08:31:19.004Z,16.78
2018-04-19T08:32:19.023Z,17.16
2018-04-19T08:33:19.041Z,17.62
2018-04-19T08:34:19.057Z,18.12
2018-04-19T08:35:19.076Z,18.35
2018-04-19T08:36:19.097Z,18.17
2018-04-19T08:37:19.115Z,17.76
2018-04-19T08:38:19.128Z,17.25
2018-04-19T08:39:19.148Z,18.05
2018-04-19T08:40:19.165Z,19.03
2018-04-19T08:41:19.183Z,18.71
2018-04-19T08:42:19.201Z,18.90
2018-04-19T08:43:19.219Z,19.09
2018-04-19T08:44:19.236Z,19.68
2018-04-19T08:45:19.255Z,19.84
2018-04-19T08:46:19.277Z,18.65
2018-04-19T08:47:19.292Z,18.26
2018-04-19T08:48:19.313Z,17.85
2018-04-19T08:49:19.334Z,18.38
2018-04-19T08:50:19.368Z,19.19
2018-04-19T08:51:19.369Z,18.94
2018-04-19T08:52:19.383Z,18.65
2018-04-19T08:53:19.402Z,18.10
2018-04-19T08:54:19.424Z,18.76
2018-04-19T08:55:19.440Z,19.82
2018-04-19T08:56:19.459Z,19.91
2018-04-19T08:57:19.476Z,20.54
2018-04-19T08:58:19.494Z,20.22
2018-04-19T08:59:19.514Z,20.67
2018-04-19T09:00:19.531Z,19.92
2018-04-19T09:01:19.551Z,18.81
2018-04-19T09:02:19.577Z,18.02
2018-04-19T09:03:19.597Z,17.47
2018-04-19T09:04:19.606Z,16.78
2018-04-19T09:05:19.626Z,16.95
2018-04-19T09:06:19.641Z,16.88
2018-04-19T09:07:19.661Z,15.99
2018-04-19T09:08:19.683Z,15.97
2018-04-19T09:09:19.701Z,16.52
2018-04-19T09:10:19.715Z,17.35
2018-04-19T09:11:19.736Z,16.88
2018-04-19T09:12:19.753Z,16.78
2018-04-19T09:13:19.772Z,15.92
2018-04-19T09:14:19.789Z,15.55
2018-04-19T09:15:19.813Z,14.78
2018-04-19T09:16:19.827Z,14.75
2018-04-19T09:17:19.848Z,14.75
2018-04-19T09:18:19.865Z,14.75
2018-04-19T09:19:19.884Z,14.04
2018-04-19T09:20:19.908Z,14.54
2018-04-19T09:21:19.932Z,14.26
2018-04-19T09:22:19.947Z,14.06
2018-04-19T09:23:19.966Z,14.26
2018-04-19T09:24:19.983Z,14.55
2018-04-19T09:25:20.004Z,14.27
2018-04-19T09:26:20.024Z,14.25
2018-04-19T09:27:20.044Z,14.74
2018-04-19T09:28:20.064Z,14.25
2018-04-19T09:29:20.085Z,14.87
2018-04-19T09:30:20.106Z,14.09
2018-04-19T09:31:20.126Z,13.46
2018-04-19T09:32:20.148Z,13.87
2018-04-19T09:33:20.169Z,14.29
2018-04-19T09:34:20.194Z,13.65
2018-04-19T09:35:20.216Z,14.32
2018-04-19T09:36:20.233Z,14.81
2018-04-19T09:37:20.255Z,15.17
2018-04-19T09:38:20.276Z,15.57
2018-04-19T09:39:20.300Z,16.19
2018-04-19T09:40:20.319Z,14.53
2018-04-19T09:41:20.340Z,14.64
2018-04-19T09:42:20.367Z,14.51
2018-04-19T09:43:20.390Z,14.73
2018-04-19T09:44:20.408Z,15.16
2018-04-19T09:45:20.427Z,14.08
2018-04-19T09:46:20.452Z,13.20
2018-04-19T09:47:20.473Z,12.82
2018-04-19T09:48:20.491Z,12.94
2018-04-19T09:49:20.513Z,11.78
2018-04-19T09:50:20.535Z,13.35
2018-04-19T09:51:20.556Z,13.37
2018-04-19T09:52:20.584Z,13.19
2018-04-19T09:53:20.600Z,12.48
2018-04-19T09:54:20.622Z,12.76
2018-04-19T09:55:20.644Z,13.23
2018-04-19T09:56:20.664Z,13.84
2018-04-19T09:57:20.687Z,13.05
2018-04-19T09:58:20.708Z,13.93
2018-04-19T09:59:20.730Z,14.42
2018-04-19T10:00:20.755Z,14.51
2018-04-19T10:01:20.778Z,14.58
2018-04-19T10:02:20.848Z,14.67
2018-04-19T10:03:20.815Z,15.37
2018-04-19T10:04:20.840Z,15.58
2018-04-19T10:05:20.863Z,15.10
2018-04-19T10:06:20.877Z,15.30
2018-04-19T10:07:20.900Z,15.39
2018-04-19T10:08:20.921Z,15.39
2018-04-19T10:09:20.940Z,14.80
2018-04-19T10:10:20.962Z,14.70
2018-04-19T10:11:20.981Z,15.29
2018-04-19T10:12:21.002Z,15.10
2018-04-19T10:13:21.023Z,15.03
2018-04-19T10:14:21.051Z,14.43
2018-04-19T10:15:21.066Z,14.04
2018-04-19T10:16:21.084Z,14.21
2018-04-19T10:17:21.107Z,14.23
2018-04-19T10:18:21.127Z,14.43
2018-04-19T10:19:21.149Z,14.95
2018-04-19T10:20:21.165Z,14.24
2018-04-19T10:21:21.270Z,14.01
2018-04-19T10:22:21.204Z,14.73
2018-04-19T10:23:21.226Z,14.58
2018-04-19T10:24:21.245Z,14.71
2018-04-19T10:25:21.267Z,14.80
2018-04-19T10:26:21.284Z,15.11
2018-04-19T10:27:21.308Z,14.42
2018-04-19T10:28:21.325Z,14.62
2018-04-19T10:29:21.345Z,14.41
2018-04-19T10:30:21.365Z,14.71
2018-04-19T10:31:21.385Z,15.26
2018-04-19T10:32:21.409Z,16.06
2018-04-19T10:33:21.430Z,16.09
2018-04-19T10:34:21.444Z,15.19
2018-04-19T10:35:21.465Z,15.59
2018-04-19T10:36:21.489Z,14.70
2018-04-19T10:37:21.511Z,14.42
2018-04-19T10:38:21.524Z,14.62
2018-04-19T10:39:21.544Z,14.21
2018-04-19T10:40:21.566Z,14.62
2018-04-19T10:41:21.583Z,14.51
2018-04-19T10:42:21.603Z,14.11
2018-04-19T10:43:21.622Z,14.20
2018-04-19T10:44:21.645Z,14.16
2018-04-19T10:45:21.665Z,15.54
2018-04-19T10:46:21.681Z,15.51
2018-04-19T10:47:21.700Z,16.22
2018-04-19T10:48:21.723Z,16.42
2018-04-19T10:49:21.740Z,16.41
2018-04-19T10:50:21.761Z,16.20
2018-04-19T10:51:21.783Z,16.68
2018-04-19T10:52:21.797Z,17.36
2018-04-19T10:53:21.817Z,17.19
2018-04-19T10:54:21.835Z,17.31
2018-04-19T10:55:21.852Z,16.55
2018-04-19T10:56:21.875Z,16.64
2018-04-19T10:57:21.896Z,16.16
2018-04-19T10:58:21.912Z,15.28
2018-04-19T10:59:21.930Z,14.38
2018-04-19T11:00:21.946Z,14.86
2018-04-19T11:01:21.965Z,15.54
2018-04-19T11:02:21.981Z,15.44
2018-04-19T11:03:21.999Z,15.53
2018-04-19T11:04:22.017Z,15.25
2018-04-19T11:05:22.036Z,15.15
2018-04-19T11:06:22.052Z,15.95
2018-04-19T11:07:22.069Z,14.39
2018-04-19T11:08:22.088Z,14.11
2018-04-19T11:09:22.105Z,14.21
2018-04-19T11:10:22.126Z,14.39
2018-04-19T11:11:22.143Z,14.37
2018-04-19T11:12:22.157Z,14.48
2018-04-19T11:13:22.174Z,14.29
2018-04-19T11:14:22.191Z,15.19
2018-04-19T11:15:22.207Z,15.20
2018-04-19T11:16:22.230Z,14.61
2018-04-19T11:17:22.246Z,14.43
2018-04-19T11:18:22.259Z,14.20
2018-04-19T11:19:22.276Z,14.47
2018-04-19T11:20:22.295Z,14.56
2018-04-19T11:21:22.310Z,15.13
2018-04-19T11:22:22.327Z,15.89
2018-04-19T11:23:22.346Z,16.85
2018-04-19T11:24:22.361Z,17.24
2018-04-19T11:25:22.381Z,18.23
2018-04-19T11:26:22.394Z,18.93
2018-04-19T11:27:22.409Z,18.84
2018-04-19T11:28:22.428Z,18.84
2018-04-19T11:29:22.445Z,19.12
2018-04-19T11:30:22.459Z,19.60
2018-04-19T11:31:22.474Z,19.30
2018-04-19T11:32:22.485Z,19.48
2018-04-19T11:33:22.503Z,19.49
2018-04-19T11:34:22.516Z,20.26
2018-04-19T11:35:22.528Z,20.25
2018-04-19T11:36:22.542Z,20.54
2018-04-19T11:37:22.556Z,20.34
2018-04-19T11:38:22.568Z,20.53
2018-04-19T11:39:22.581Z,21.21
2018-04-19T11:40:22.594Z,20.81
2018-04-19T11:41:22.607Z,20.92
2018-04-19T11:42:22.620Z,21.31
2018-04-19T11:43:22.632Z,22.00
2018-04-19T11:44:22.640Z,21.91
2018-04-19T11:45:22.656Z,20.93
2018-04-19T11:46:22.662Z,21.62
2018-04-19T11:47:22.679Z,21.62
2018-04-19T11:48:22.685Z,21.62
2018-04-19T11:49:22.695Z,21.81
2018-04-19T11:50:22.708Z,20.84
2018-04-19T11:51:22.718Z,21.23
2018-04-19T11:52:22.725Z,21.13
2018-04-19T11:53:22.734Z,21.32
2018-04-19T11:54:22.748Z,21.13
2018-04-19T11:55:22.757Z,21.23
2018-04-19T11:56:22.763Z,20.95
2018-04-19T11:57:22.773Z,22.02
2018-04-19T11:58:22.781Z,21.53
2018-04-19T11:59:22.792Z,21.23
2018-04-19T12:00:22.801Z,22.02
2018-04-19T12:01:22.810Z,21.23
2018-04-19T12:02:22.819Z,20.83
2018-04-19T12:03:22.827Z,21.12
2018-04-19T12:04:22.837Z,21.61
2018-04-19T12:05:22.846Z,21.70
2018-04-19T12:06:22.853Z,21.89
2018-04-19T12:07:22.862Z,22.38
2018-04-19T12:08:22.877Z,21.58
2018-04-19T12:09:22.886Z,21.78
2018-04-19T12:10:22.888Z,22.25
2018-04-19T12:11:22.897Z,22.35
2018-04-19T12:12:22.908Z,22.84
2018-04-19T12:13:22.918Z,23.24
2018-04-19T12:14:22.922Z,22.85
2018-04-19T12:15:22.928Z,22.74
2018-04-19T12:16:22.936Z,22.95
2018-04-19T12:17:22.945Z,23.05
2018-04-19T12:18:22.951Z,23.64
2018-04-19T12:19:22.960Z,22.36
2018-04-19T12:20:22.968Z,22.37
2018-04-19T12:21:22.976Z,22.07
2018-04-19T12:22:22.985Z,22.47
2018-04-19T12:23:22.993Z,22.56
2018-04-19T12:24:22.999Z,22.85
2018-04-19T12:25:23.006Z,22.86
2018-04-19T12:26:23.017Z,23.16
2018-04-19T12:27:23.024Z,22.58
2018-04-19T12:28:23.028Z,22.19
2018-04-19T12:29:23.036Z,22.09
2018-04-19T12:30:23.042Z,22.56
2018-04-19T12:31:23.050Z,22.09
2018-04-19T12:32:23.062Z,22.08
2018-04-19T12:33:23.069Z,21.78
2018-04-19T12:34:23.072Z,22.07
2018-04-19T12:35:23.081Z,21.58
2018-04-19T12:36:23.089Z,21.58
2018-04-19T12:37:23.096Z,21.88
2018-04-19T12:38:23.101Z,21.88
2018-04-19T12:39:23.109Z,21.59
2018-04-19T12:40:23.120Z,20.90
2018-04-19T12:41:23.128Z,21.00
2018-04-19T12:42:23.131Z,21.20
2018-04-19T12:43:23.166Z,20.90
2018-04-19T12:44:23.151Z,20.90
2018-04-19T12:45:23.157Z,20.90
2018-04-19T12:46:23.160Z,21.58
2018-04-19T12:47:23.184Z,21.88
2018-04-19T12:48:23.186Z,21.97
2018-04-19T12:49:23.198Z,21.98
2018-04-19T12:50:23.211Z,21.39
2018-04-19T12:51:23.210Z,21.98
2018-04-19T12:52:23.203Z,20.90
2018-04-19T12:53:23.209Z,21.10
2018-04-19T12:54:23.219Z,20.80
2018-04-19T12:55:23.226Z,21.00
2018-04-19T12:56:23.230Z,20.31